createdAt,value
2022-10-02T00:02:31.537Z,100.00
2022-10-02T00:05:07.348Z,100.00
2022-10-02T00:07:46.640Z,100.00
2022-10-02T00:10:21.482Z,100.00
2022-10-02T00:12:51.520Z,100.00
2022-10-02T00:15:27.828Z,100.00
2022-10-02T00:17:59.959Z,100.00
2022-10-02T00:20:55.673Z,100.00
2022-10-02T00:23:38.314Z,100.00
2022-10-02T00:26:19.051Z,100.00
2022-10-02T00:29:03.598Z,100.00
2022-10-02T00:31:52.966Z,100.00
2022-10-02T00:34:30.788Z,100.00
2022-10-02T00:37:32.721Z,100.00
2022-10-02T00:40:11.344Z,100.00
2022-10-02T00:43:15.463Z,100.00
2022-10-02T00:46:21.052Z,100.00
2022-10-02T00:48:57.857Z,100.00
2022-10-02T00:51:30.439Z,100.00
2022-10-02T00:54:25.831Z,100.00
2022-10-02T00:56:58.474Z,100.00
2022-10-02T00:59:58.378Z,100.00
2022-10-02T01:02:31.060Z,100.00
2022-10-02T01:05:03.642Z,100.00
2022-10-02T01:07:30.858Z,100.00
2022-10-02T01:09:57.478Z,100.00
2022-10-02T01:12:24.590Z,100.00
2022-10-02T01:14:51.252Z,100.00
2022-10-02T01:17:23.512Z,100.00
2022-10-02T01:19:51.307Z,100.00
2022-10-02T01:22:30.096Z,100.00
2022-10-02T01:24:58.263Z,100.00
2022-10-02T01:27:26.680Z,100.00
2022-10-02T01:30:03.230Z,100.00
2022-10-02T01:32:30.154Z,100.00
2022-10-02T01:34:57.407Z,100.00
2022-10-02T01:37:36.468Z,100.00
2022-10-02T01:40:09.180Z,100.00
2022-10-02T01:42:38.408Z,100.00
2022-10-02T01:45:07.983Z,100.00
2022-10-02T01:48:04.934Z,100.00
2022-10-02T01:51:00.597Z,100.00
2022-10-02T01:53:36.769Z,100.00
2022-10-02T01:56:30.995Z,100.00
2022-10-02T01:59:06.672Z,100.00
2022-10-02T02:01:36.357Z,100.00
2022-10-02T02:04:22.062Z,100.00
2022-10-02T02:07:18.028Z,100.00
2022-10-02T02:10:10.266Z,100.00
2022-10-02T02:12:45.692Z,100.00
2022-10-02T02:15:18.443Z,100.00
2022-10-02T02:17:53.725Z,100.00
2022-10-02T02:20:32.748Z,100.00
2022-10-02T02:23:06.635Z,100.00
2022-10-02T02:25:40.788Z,100.00
2022-10-02T02:28:12.567Z,100.00
2022-10-02T02:30:42.636Z,100.00
2022-10-02T02:33:17.351Z,100.00
2022-10-02T02:35:49.373Z,100.00
2022-10-02T02:38:24.953Z,100.00
2022-10-02T02:40:52.327Z,100.00
2022-10-02T02:43:26.604Z,100.00
2022-10-02T02:46:01.245Z,100.00
2022-10-02T02:48:36.934Z,100.00
2022-10-02T02:51:15.315Z,100.00
2022-10-02T02:53:53.916Z,100.00
2022-10-02T02:56:21.864Z,100.00
2022-10-02T02:59:08.529Z,100.00
2022-10-02T03:01:35.350Z,100.00
2022-10-02T03:04:02.182Z,100.00
2022-10-02T03:06:39.996Z,100.00
2022-10-02T03:09:12.531Z,100.00
2022-10-02T03:12:03.208Z,100.00
2022-10-02T03:14:42.847Z,100.00
2022-10-02T03:17:34.593Z,100.00
2022-10-02T03:20:12.786Z,100.00
2022-10-02T03:23:00.077Z,100.00
2022-10-02T03:25:38.448Z,100.00
2022-10-02T03:28:43.350Z,100.00
2022-10-02T03:31:12.697Z,100.00
2022-10-02T03:33:40.461Z,100.00
2022-10-02T03:36:07.224Z,100.00
2022-10-02T03:38:34.206Z,100.00
2022-10-02T03:41:00.923Z,100.00
2022-10-02T03:43:29.690Z,100.00
2022-10-02T03:45:56.846Z,100.00
2022-10-02T03:48:23.547Z,100.00
2022-10-02T03:50:51.149Z,100.00
2022-10-02T03:53:20.679Z,100.00
2022-10-02T03:56:30.065Z,100.00
2022-10-02T03:59:01.431Z,100.00
2022-10-02T04:01:48.181Z,100.00
2022-10-02T04:04:22.808Z,100.00
2022-10-02T04:07:04.967Z,100.00
2022-10-02T04:09:59.307Z,100.00
2022-10-02T04:12:39.122Z,100.00
2022-10-02T04:16:04.352Z,100.00
2022-10-02T04:19:06.365Z,100.00
2022-10-02T04:21:38.738Z,100.00
2022-10-02T04:24:15.580Z,100.00
2022-10-02T04:26:57.995Z,100.00
2022-10-02T04:29:32.686Z,100.00
2022-10-02T04:32:12.568Z,100.00
2022-10-02T04:34:39.519Z,100.00
2022-10-02T04:37:09.186Z,100.00
2022-10-02T04:39:43.476Z,100.00
2022-10-02T04:42:31.040Z,100.00
2022-10-02T04:45:23.398Z,100.00
2022-10-02T04:48:41.266Z,100.00
2022-10-02T04:51:28.258Z,100.00
2022-10-02T04:54:12.890Z,100.00
2022-10-02T04:56:52.398Z,100.00
2022-10-02T04:59:42.082Z,100.00
2022-10-02T05:02:27.556Z,100.00
2022-10-02T05:04:54.185Z,100.00
2022-10-02T05:07:23.558Z,100.00
2022-10-02T05:10:26.862Z,100.00
2022-10-02T05:12:59.674Z,100.00
2022-10-02T05:15:45.004Z,100.00
2022-10-02T05:18:28.787Z,100.00
2022-10-02T05:20:55.394Z,100.00
2022-10-02T05:24:07.009Z,100.00
2022-10-02T05:26:49.007Z,100.00
2022-10-02T05:29:28.355Z,100.00
2022-10-02T05:32:08.268Z,100.00
2022-10-02T05:34:43.892Z,100.00
2022-10-02T05:37:25.818Z,100.00
2022-10-02T05:40:11.103Z,100.00
2022-10-02T05:43:10.925Z,100.00
2022-10-02T05:45:38.756Z,100.00
2022-10-02T05:48:24.221Z,100.00
2022-10-02T05:50:55.348Z,100.00
2022-10-02T05:53:33.651Z,100.00
2022-10-02T05:56:15.629Z,100.00
2022-10-02T05:58:52.091Z,100.00
2022-10-02T06:01:29.725Z,100.00
2022-10-02T06:04:02.722Z,100.00
2022-10-02T06:06:39.693Z,100.00
2022-10-02T06:09:20.582Z,100.00
2022-10-02T06:11:59.190Z,100.00
2022-10-02T06:14:50.715Z,100.00
2022-10-02T06:17:35.296Z,100.00
2022-10-02T06:20:16.544Z,100.00
2022-10-02T06:23:21.787Z,100.00
2022-10-02T06:26:15.618Z,100.00
2022-10-02T06:29:02.483Z,100.00
2022-10-02T06:31:47.380Z,100.00
2022-10-02T06:34:14.928Z,100.00
2022-10-02T06:37:23.327Z,100.00
2022-10-02T06:40:18.261Z,100.00
2022-10-02T06:42:53.903Z,100.00
2022-10-02T06:45:39.178Z,100.00
2022-10-02T06:48:24.854Z,100.00
2022-10-02T06:50:54.794Z,100.00
2022-10-02T06:53:33.409Z,100.00
2022-10-02T06:56:39.111Z,100.00
2022-10-02T06:59:47.216Z,100.00
2022-10-02T07:02:29.102Z,100.00
2022-10-02T07:05:47.269Z,100.00
2022-10-02T07:08:37.529Z,100.00
2022-10-02T07:11:16.202Z,100.00
2022-10-02T07:13:59.044Z,100.00
2022-10-02T07:16:53.692Z,100.00
2022-10-02T07:19:28.399Z,100.00
2022-10-02T07:21:58.065Z,100.00
2022-10-02T07:24:36.878Z,100.00
2022-10-02T07:27:15.591Z,100.00
2022-10-02T07:30:06.711Z,100.00
2022-10-02T07:32:42.587Z,100.00
2022-10-02T07:35:19.665Z,100.00
2022-10-02T07:38:04.990Z,100.00
2022-10-02T07:40:47.408Z,100.00
2022-10-02T07:43:23.171Z,100.00
2022-10-02T07:46:39.274Z,100.00
2022-10-02T07:49:25.440Z,100.00
2022-10-02T07:52:01.123Z,100.00
2022-10-02T07:54:55.162Z,100.00
2022-10-02T07:57:43.675Z,100.00
2022-10-02T08:00:21.424Z,100.00
2022-10-02T08:03:05.408Z,100.00
2022-10-02T08:05:41.439Z,99.81
2022-10-02T08:08:33.203Z,100.00
2022-10-02T08:11:22.495Z,100.00
2022-10-02T08:13:49.399Z,96.82
2022-10-02T08:16:20.229Z,97.18
2022-10-02T08:18:54.637Z,88.25
2022-10-02T08:21:24.831Z,85.56
2022-10-02T08:23:59.835Z,82.41
2022-10-02T08:26:48.252Z,84.26
2022-10-02T08:29:24.319Z,90.07
2022-10-02T08:32:13.924Z,82.04
2022-10-02T08:34:44.328Z,80.14
2022-10-02T08:37:30.096Z,86.02
2022-10-02T08:40:29.227Z,83.74
2022-10-02T08:43:18.244Z,79.23
2022-10-02T08:46:22.316Z,83.49
2022-10-02T08:49:07.443Z,78.27
2022-10-02T08:51:56.351Z,82.24
2022-10-02T08:54:59.892Z,80.12
2022-10-02T08:57:48.339Z,81.52
2022-10-02T09:00:36.809Z,82.60
2022-10-02T09:03:46.480Z,89.61
2022-10-02T09:06:31.742Z,90.75
2022-10-02T09:09:17.260Z,89.57
2022-10-02T09:12:16.540Z,91.62
2022-10-02T09:15:15.309Z,86.72
2022-10-02T09:17:49.527Z,84.64
2022-10-02T09:21:02.570Z,85.38
2022-10-02T09:23:47.893Z,80.80
2022-10-02T09:26:32.076Z,88.33
2022-10-02T09:29:20.483Z,88.39
2022-10-02T09:31:59.301Z,86.86
2022-10-02T09:34:41.077Z,85.74
2022-10-02T09:37:29.553Z,88.80
2022-10-02T09:40:59.250Z,89.72
2022-10-02T09:44:03.761Z,90.17
2022-10-02T09:47:00.040Z,89.55
2022-10-02T09:49:47.977Z,86.66
2022-10-02T09:52:52.052Z,90.79
2022-10-02T09:55:39.287Z,94.79
2022-10-02T09:58:46.150Z,91.10
2022-10-02T10:01:27.387Z,94.54
2022-10-02T10:04:09.364Z,92.31
2022-10-02T10:06:51.392Z,89.77
2022-10-02T10:09:41.248Z,90.60
2022-10-02T10:13:00.089Z,89.85
2022-10-02T10:15:40.727Z,90.35
2022-10-02T10:18:10.561Z,87.36
2022-10-02T10:21:01.619Z,89.51
2022-10-02T10:24:04.000Z,88.27
2022-10-02T10:26:40.492Z,86.36
2022-10-02T10:29:45.580Z,86.16
2022-10-02T10:32:48.291Z,86.54
2022-10-02T10:35:34.955Z,84.45
2022-10-02T10:38:24.313Z,83.26
2022-10-02T10:44:32.040Z,79.56
2022-10-02T10:47:04.724Z,80.74
2022-10-02T10:50:09.567Z,82.47
2022-10-02T10:53:08.208Z,84.18
2022-10-02T10:56:07.370Z,83.55
2022-10-02T10:58:36.921Z,81.01
2022-10-02T11:01:28.347Z,80.15
2022-10-02T11:04:07.171Z,81.02
2022-10-02T11:07:09.485Z,77.96
2022-10-02T11:10:07.862Z,81.45
2022-10-02T11:12:52.838Z,78.94
2022-10-02T11:15:40.832Z,75.36
2022-10-02T11:21:13.268Z,74.19
2022-10-02T11:24:03.001Z,73.62
2022-10-02T11:26:51.106Z,70.50
2022-10-02T11:29:33.304Z,71.73
2022-10-02T11:32:14.849Z,71.21
2022-10-02T11:34:52.768Z,70.91
2022-10-02T11:37:48.528Z,69.77
2022-10-02T11:41:00.455Z,68.25
2022-10-02T11:43:43.775Z,67.30
2022-10-02T11:46:29.244Z,68.03
2022-10-02T11:49:32.501Z,68.12
2022-10-02T11:51:59.201Z,70.08
2022-10-02T11:54:37.613Z,70.30
2022-10-02T11:57:24.528Z,72.27
2022-10-02T12:00:14.977Z,73.13
2022-10-02T12:02:59.026Z,73.18
2022-10-02T12:05:58.485Z,72.94
2022-10-02T12:08:51.233Z,73.57
2022-10-02T12:11:44.248Z,73.45
2022-10-02T12:14:38.087Z,73.46
2022-10-02T12:17:38.171Z,73.44
2022-10-02T12:20:35.903Z,73.42
2022-10-02T12:23:52.631Z,74.21
2022-10-02T12:26:50.188Z,74.20
2022-10-02T12:29:41.122Z,76.87
2022-10-02T12:32:26.392Z,77.45
2022-10-02T12:35:23.499Z,78.98
2022-10-02T12:38:16.405Z,77.32
2022-10-02T12:51:05.506Z,77.25
2022-10-02T12:53:50.246Z,80.65
2022-10-02T12:56:46.221Z,80.38
2022-10-02T12:59:12.955Z,78.03
2022-10-02T13:01:52.476Z,78.57
2022-10-02T13:04:38.201Z,82.76
2022-10-02T13:07:42.849Z,78.11
2022-10-02T13:10:21.958Z,80.99
2022-10-02T13:12:52.407Z,79.19
2022-10-02T13:15:37.578Z,77.26
2022-10-02T13:18:17.347Z,80.94
2022-10-02T13:21:11.664Z,79.32
2022-10-02T13:24:10.799Z,79.29
2022-10-02T13:26:55.642Z,76.37
2022-10-02T13:29:43.636Z,78.68
2022-10-02T13:32:26.360Z,78.87
2022-10-02T13:35:17.772Z,78.23
2022-10-02T13:38:10.804Z,77.51
2022-10-02T13:41:05.167Z,77.23
2022-10-02T13:43:58.739Z,79.15
2022-10-02T13:46:55.028Z,77.68
2022-10-02T13:49:47.872Z,76.87
2022-10-02T13:52:27.667Z,77.34
2022-10-02T13:55:12.673Z,78.21
2022-10-02T13:58:12.463Z,78.79
2022-10-02T14:00:39.029Z,76.29
2022-10-02T14:03:26.523Z,76.35
2022-10-02T14:06:20.348Z,80.11
2022-10-02T14:09:36.273Z,81.39
2022-10-02T14:34:14.880Z,90.01
2022-10-02T14:57:53.870Z,84.06
2022-10-02T15:25:32.018Z,95.46
2022-10-02T15:28:49.642Z,93.62
2022-10-02T15:31:42.393Z,92.39
2022-10-02T15:34:38.035Z,92.46
2022-10-02T15:48:27.215Z,92.56
2022-10-02T15:51:09.220Z,97.89
2022-10-02T15:53:54.829Z,98.85
2022-10-02T15:56:36.749Z,99.92
2022-10-02T16:02:26.389Z,100.00
2022-10-02T16:05:31.630Z,99.81
2022-10-02T16:08:17.065Z,100.00
2022-10-02T16:11:08.774Z,100.00
2022-10-02T16:13:55.345Z,100.00
2022-10-02T16:16:56.852Z,100.00
2022-10-02T16:20:06.504Z,100.00
2022-10-02T16:22:57.534Z,100.00
2022-10-02T16:25:50.133Z,100.00
2022-10-02T16:28:23.186Z,100.00
2022-10-02T16:30:49.832Z,100.00
2022-10-02T16:33:32.808Z,100.00
2022-10-02T16:36:23.589Z,100.00
2022-10-02T16:39:31.996Z,100.00
2022-10-02T16:42:23.266Z,100.00
2022-10-02T16:45:22.439Z,100.00
2022-10-02T16:48:15.320Z,100.00
2022-10-02T16:51:09.551Z,100.00
2022-10-02T16:53:41.640Z,100.00
2022-10-02T16:56:32.530Z,100.00
2022-10-02T16:59:31.640Z,100.00
2022-10-02T17:06:00.910Z,100.00
2022-10-02T17:15:24.139Z,100.00
2022-10-02T17:30:27.293Z,100.00
2022-10-02T17:33:13.986Z,100.00
2022-10-02T17:36:19.671Z,100.00
2022-10-02T17:42:14.439Z,100.00
2022-10-02T17:45:15.769Z,100.00
2022-10-02T17:47:51.572Z,100.00
2022-10-02T17:50:30.367Z,100.00
2022-10-02T17:53:22.294Z,100.00
2022-10-02T17:56:28.711Z,100.00
2022-10-02T17:59:04.165Z,100.00
2022-10-02T18:01:36.913Z,100.00
2022-10-02T18:04:57.026Z,100.00
2022-10-02T18:08:06.973Z,100.00
2022-10-02T18:10:46.383Z,100.00
2022-10-02T18:13:20.583Z,100.00
2022-10-02T18:15:50.343Z,100.00
2022-10-02T18:18:26.615Z,100.00
2022-10-02T18:21:22.839Z,100.00
2022-10-02T18:24:06.541Z,100.00
2022-10-02T18:27:01.083Z,100.00
2022-10-02T18:29:39.759Z,100.00
2022-10-02T18:32:27.098Z,100.00
2022-10-02T18:35:08.944Z,100.00
2022-10-02T18:37:57.449Z,100.00
2022-10-02T18:40:35.233Z,100.00
2022-10-02T18:43:04.861Z,100.00
2022-10-02T18:45:46.765Z,100.00
2022-10-02T18:48:37.853Z,100.00
2022-10-02T18:51:52.650Z,100.00
2022-10-02T18:55:03.192Z,100.00
2022-10-02T18:57:51.878Z,100.00
2022-10-02T19:00:24.595Z,100.00
2022-10-02T19:03:15.444Z,100.00
2022-10-02T19:05:53.691Z,100.00
2022-10-02T19:09:03.826Z,100.00
2022-10-02T19:11:32.663Z,100.00
2022-10-02T19:14:02.286Z,100.00
2022-10-02T19:16:30.660Z,100.00
2022-10-02T19:19:09.918Z,100.00
2022-10-02T19:21:37.743Z,100.00
2022-10-02T19:24:15.299Z,100.00
2022-10-02T19:26:46.905Z,100.00
2022-10-02T19:29:27.563Z,100.00
2022-10-02T19:31:58.154Z,100.00
2022-10-02T19:34:31.007Z,100.00
2022-10-02T19:37:04.740Z,100.00
2022-10-02T19:39:38.477Z,100.00
2022-10-02T19:42:17.858Z,100.00
2022-10-02T19:44:49.654Z,100.00
2022-10-02T19:47:22.782Z,100.00
2022-10-02T19:49:52.351Z,100.00
2022-10-02T19:52:38.470Z,100.00
2022-10-02T19:55:22.702Z,100.00
2022-10-02T19:57:51.606Z,100.00
2022-10-02T20:00:20.345Z,100.00
2022-10-02T20:02:53.110Z,100.00
2022-10-02T20:05:31.681Z,100.00
2022-10-02T20:08:06.797Z,100.00
2022-10-02T20:10:51.918Z,100.00
2022-10-02T20:13:18.469Z,100.00
2022-10-02T20:16:13.595Z,100.00
2022-10-02T20:18:41.436Z,100.00
2022-10-02T20:21:17.951Z,100.00
2022-10-02T20:23:50.130Z,100.00
2022-10-02T20:26:23.247Z,100.00
2022-10-02T20:28:59.133Z,100.00
2022-10-02T20:31:55.345Z,100.00
2022-10-02T20:34:36.391Z,100.00
2022-10-02T20:37:08.734Z,100.00
2022-10-02T20:39:44.550Z,100.00
2022-10-02T20:42:36.397Z,100.00
2022-10-02T20:45:03.168Z,100.00
2022-10-02T20:47:48.574Z,100.00
2022-10-02T20:50:33.611Z,100.00
2022-10-02T20:53:06.359Z,100.00
2022-10-02T20:55:53.534Z,100.00
2022-10-02T20:58:38.946Z,100.00
2022-10-02T21:01:19.157Z,100.00
2022-10-02T21:04:26.713Z,100.00
2022-10-02T21:07:18.821Z,100.00
2022-10-02T21:09:45.386Z,100.00
2022-10-02T21:12:45.782Z,100.00
2022-10-02T21:15:18.684Z,100.00
2022-10-02T21:18:04.847Z,100.00
2022-10-02T21:20:59.243Z,100.00
2022-10-02T21:23:31.451Z,100.00
2022-10-02T21:26:06.978Z,100.00
2022-10-02T21:28:41.535Z,100.00
2022-10-02T21:31:38.686Z,100.00
2022-10-02T21:34:37.836Z,100.00
2022-10-02T21:37:15.553Z,100.00
2022-10-02T21:40:09.696Z,100.00
2022-10-02T21:42:42.517Z,100.00
2022-10-02T21:45:32.347Z,100.00
2022-10-02T21:48:30.452Z,100.00
2022-10-02T21:51:28.290Z,100.00
2022-10-02T21:54:35.738Z,100.00
2022-10-02T21:57:17.611Z,100.00
2022-10-02T21:59:46.932Z,100.00
2022-10-02T22:02:50.342Z,100.00
2022-10-02T22:05:38.481Z,100.00
2022-10-02T22:08:27.242Z,100.00
2022-10-02T22:11:24.287Z,100.00
2022-10-02T22:13:58.456Z,100.00
2022-10-02T22:16:44.113Z,100.00
2022-10-02T22:19:48.245Z,100.00
2022-10-02T22:22:38.272Z,100.00
2022-10-02T22:25:35.429Z,100.00
2022-10-02T22:28:34.566Z,100.00
2022-10-02T22:31:22.471Z,100.00
2022-10-02T22:34:30.556Z,100.00
2022-10-02T22:37:13.459Z,100.00
2022-10-02T22:40:03.730Z,100.00
2022-10-02T22:42:45.191Z,100.00
2022-10-02T22:45:39.153Z,100.00
2022-10-02T22:48:24.744Z,100.00
2022-10-02T22:50:58.216Z,100.00
2022-10-02T22:53:33.051Z,100.00
2022-10-02T22:56:00.157Z,100.00
2022-10-02T22:58:41.966Z,100.00
2022-10-02T23:01:26.921Z,100.00
2022-10-02T23:04:00.761Z,100.00
2022-10-02T23:06:55.513Z,100.00
2022-10-02T23:09:36.763Z,100.00
2022-10-02T23:12:43.254Z,100.00
2022-10-02T23:15:32.642Z,100.00
2022-10-02T23:18:15.915Z,100.00
2022-10-02T23:20:54.293Z,100.00
2022-10-02T23:23:28.424Z,100.00
2022-10-02T23:26:07.405Z,100.00
2022-10-02T23:28:41.672Z,100.00
2022-10-02T23:31:14.676Z,100.00
2022-10-02T23:33:52.933Z,100.00
2022-10-02T23:36:59.524Z,100.00
2022-10-02T23:39:56.742Z,100.00
2022-10-02T23:42:39.396Z,100.00
2022-10-02T23:45:19.443Z,100.00
2022-10-02T23:48:06.044Z,100.00
2022-10-02T23:51:10.135Z,100.00
2022-10-02T23:54:10.819Z,100.00
2022-10-02T23:56:55.784Z,100.00
2022-10-02T23:59:49.823Z,100.00
